createdAt,value
2019-04-16T00:01:46.370Z,12.00
2019-04-16T00:04:33.259Z,11.73
2019-04-16T00:07:18.976Z,12.90
2019-04-16T00:10:01.598Z,12.43
2019-04-16T00:12:35.848Z,11.68
2019-04-16T00:15:06.588Z,11.10
2019-04-16T00:17:35.337Z,10.40
2019-04-16T00:20:06.998Z,11.55
2019-04-16T00:22:40.669Z,11.38
2019-04-16T00:25:09.647Z,10.88
2019-04-16T00:27:40.531Z,11.28
2019-04-16T00:30:12.303Z,11.40
2019-04-16T00:32:42.653Z,10.70
2019-04-16T00:35:15.391Z,11.15
2019-04-16T00:37:43.211Z,11.15
2019-04-16T00:40:14.081Z,11.73
2019-04-16T00:42:44.024Z,11.18
2019-04-16T00:45:12.959Z,11.95
2019-04-16T00:47:41.946Z,11.78
2019-04-16T00:50:12.933Z,11.78
2019-04-16T00:52:41.789Z,11.08
2019-04-16T00:55:13.575Z,12.60
2019-04-16T00:57:41.071Z,12.80
2019-04-16T01:00:09.803Z,12.16
2019-04-16T01:02:38.650Z,12.88
2019-04-16T01:05:09.675Z,13.32
2019-04-16T01:07:38.460Z,13.20
2019-04-16T01:10:07.211Z,14.35
2019-04-16T01:12:36.309Z,13.72
2019-04-16T01:15:07.079Z,13.62
2019-04-16T01:17:36.658Z,13.72
2019-04-16T01:20:11.566Z,13.58
2019-04-16T01:22:37.675Z,13.25
2019-04-16T01:25:10.371Z,14.03
2019-04-16T01:28:01.007Z,13.38
2019-04-16T01:30:36.634Z,14.05
2019-04-16T01:33:19.187Z,14.65
2019-04-16T01:36:04.725Z,15.23
2019-04-16T01:38:47.946Z,14.63
2019-04-16T01:41:21.705Z,15.95
2019-04-16T01:43:50.715Z,15.35
2019-04-16T01:46:20.686Z,15.72
2019-04-16T01:48:53.302Z,16.48
2019-04-16T01:51:24.152Z,15.50
2019-04-16T01:53:53.035Z,16.15
2019-04-16T01:56:21.832Z,15.05
2019-04-16T01:58:51.735Z,15.38
2019-04-16T02:01:20.525Z,15.08
2019-04-16T02:03:49.664Z,15.10
2019-04-16T02:06:19.607Z,14.45
2019-04-16T02:08:48.382Z,14.98
2019-04-16T02:11:17.285Z,15.80
2019-04-16T02:13:46.936Z,14.87
2019-04-16T02:16:17.210Z,16.13
2019-04-16T02:19:05.269Z,15.08
2019-04-16T02:21:35.161Z,15.48
2019-04-16T02:24:03.899Z,14.77
2019-04-16T02:26:32.791Z,16.12
2019-04-16T02:29:02.772Z,15.78
2019-04-16T02:31:32.638Z,16.10
2019-04-16T02:34:02.633Z,16.02
2019-04-16T02:36:32.804Z,15.03
2019-04-16T02:39:01.995Z,14.87
2019-04-16T02:41:31.976Z,15.53
2019-04-16T02:44:01.967Z,15.98
2019-04-16T02:46:32.488Z,15.60
2019-04-16T02:49:01.418Z,15.70
2019-04-16T02:51:39.600Z,14.30
2019-04-16T02:54:12.105Z,15.72
2019-04-16T02:56:42.463Z,16.45
2019-04-16T02:59:15.458Z,17.10
2019-04-16T03:01:49.435Z,16.17
2019-04-16T03:04:20.645Z,16.05
2019-04-16T03:06:50.447Z,15.40
2019-04-16T03:09:21.901Z,16.80
2019-04-16T03:11:50.658Z,15.48
2019-04-16T03:14:19.687Z,16.93
2019-04-16T03:16:58.987Z,15.28
2019-04-16T03:19:29.308Z,16.00
2019-04-16T03:22:01.930Z,16.97
2019-04-16T03:24:29.653Z,16.02
2019-04-16T03:26:58.387Z,15.72
2019-04-16T03:29:27.548Z,15.83
2019-04-16T03:31:59.653Z,16.70
2019-04-16T03:34:28.757Z,16.60
2019-04-16T03:37:04.507Z,15.83
2019-04-16T03:39:35.398Z,15.38
2019-04-16T03:42:04.149Z,13.72
2019-04-16T03:44:33.564Z,14.68
2019-04-16T03:47:06.667Z,15.55
2019-04-16T03:49:35.645Z,14.53
2019-04-16T03:52:08.440Z,13.83
2019-04-16T03:54:37.337Z,14.93
2019-04-16T03:57:06.292Z,14.63
2019-04-16T03:59:36.226Z,15.87
2019-04-16T04:02:05.258Z,14.23
2019-04-16T04:04:33.949Z,13.43
2019-04-16T04:07:08.785Z,14.93
2019-04-16T04:09:37.455Z,14.43
2019-04-16T04:12:09.628Z,14.43
2019-04-16T04:14:38.605Z,15.00
2019-04-16T04:17:07.537Z,14.07
2019-04-16T04:19:37.338Z,14.03
2019-04-16T04:22:06.076Z,14.73
2019-04-16T04:24:36.919Z,19.92
2019-04-16T04:27:05.636Z,20.32
2019-04-16T04:29:40.388Z,16.23
2019-04-16T04:32:09.180Z,15.83
2019-04-16T04:34:38.060Z,14.78
2019-04-16T04:37:08.082Z,16.97
2019-04-16T04:39:38.257Z,20.20
2019-04-16T04:42:07.084Z,15.58
2019-04-16T04:44:36.926Z,14.63
2019-04-16T04:47:05.878Z,15.20
2019-04-16T04:49:36.667Z,17.07
2019-04-16T04:52:06.623Z,16.37
2019-04-16T04:54:35.604Z,16.23
2019-04-16T04:57:04.838Z,15.65
2019-04-16T04:59:36.514Z,16.02
2019-04-16T05:02:06.030Z,17.10
2019-04-16T05:04:49.694Z,22.48
2019-04-16T05:07:22.341Z,16.80
2019-04-16T05:09:55.919Z,17.50
2019-04-16T05:12:26.801Z,17.67
2019-04-16T05:14:58.411Z,26.80
2019-04-16T05:17:30.386Z,17.80
2019-04-16T05:20:00.165Z,21.97
2019-04-16T05:22:28.924Z,18.80
2019-04-16T05:25:01.504Z,18.40
2019-04-16T05:27:29.423Z,18.12
2019-04-16T05:30:00.022Z,18.80
2019-04-16T05:32:32.732Z,19.40
2019-04-16T05:34:59.383Z,21.05
2019-04-16T05:37:32.076Z,19.87
2019-04-16T05:40:01.942Z,19.50
2019-04-16T05:42:30.671Z,20.15
2019-04-16T05:45:02.476Z,20.80
2019-04-16T05:47:32.901Z,20.50
2019-04-16T05:50:01.624Z,20.72
2019-04-16T05:52:35.308Z,20.30
2019-04-16T05:55:02.550Z,31.90
2019-04-16T05:57:35.773Z,20.23
2019-04-16T06:00:10.069Z,25.75
2019-04-16T06:02:42.144Z,22.75
2019-04-16T06:05:10.929Z,21.17
2019-04-16T06:07:41.396Z,22.42
2019-04-16T06:10:10.258Z,21.05
2019-04-16T06:12:59.993Z,22.13
2019-04-16T06:15:39.139Z,21.87
2019-04-16T06:18:12.184Z,21.52
2019-04-16T06:20:54.702Z,23.55
2019-04-16T06:23:31.964Z,20.70
2019-04-16T06:26:02.675Z,22.42
2019-04-16T06:28:37.035Z,22.10
2019-04-16T06:31:10.283Z,20.68
2019-04-16T06:33:44.253Z,21.57
2019-04-16T06:36:25.511Z,21.50
2019-04-16T06:38:59.051Z,20.97
2019-04-16T06:41:41.192Z,20.52
2019-04-16T06:44:04.027Z,20.65
2019-04-16T06:46:39.469Z,22.20
2019-04-16T06:49:19.930Z,21.87
2019-04-16T06:51:59.785Z,21.48
2019-04-16T06:54:41.906Z,23.07
2019-04-16T06:57:27.511Z,22.82
2019-04-16T07:00:07.313Z,20.80
2019-04-16T07:03:01.844Z,22.10
2019-04-16T07:05:35.093Z,21.57
2019-04-16T07:08:36.200Z,23.77
2019-04-16T07:10:57.659Z,22.82
2019-04-16T07:13:26.562Z,24.25
2019-04-16T07:15:57.800Z,23.30
2019-04-16T07:18:27.334Z,24.18
2019-04-16T07:20:57.303Z,23.47
2019-04-16T07:23:28.149Z,23.60
2019-04-16T07:25:56.949Z,24.23
2019-04-16T07:28:36.144Z,24.15
2019-04-16T07:31:13.257Z,23.83
2019-04-16T07:33:41.275Z,25.52
2019-04-16T07:36:14.852Z,24.65
2019-04-16T07:39:04.933Z,25.00
2019-04-16T07:41:43.331Z,24.60
2019-04-16T07:44:14.322Z,26.05
2019-04-16T07:46:53.520Z,25.85
2019-04-16T07:49:38.885Z,27.53
2019-04-16T07:52:12.285Z,25.55
2019-04-16T07:55:03.405Z,24.45
2019-04-16T07:57:32.144Z,23.47
2019-04-16T08:00:00.892Z,23.83
2019-04-16T08:02:30.009Z,25.05
2019-04-16T08:04:58.847Z,25.57
2019-04-16T08:07:28.780Z,26.10
2019-04-16T08:10:02.127Z,26.15
2019-04-16T08:12:30.791Z,26.62
2019-04-16T08:15:12.876Z,26.00
2019-04-16T08:17:30.671Z,24.82
2019-04-16T08:20:07.007Z,25.20
2019-04-16T08:22:47.292Z,25.32
2019-04-16T08:25:13.952Z,27.67
2019-04-16T08:27:42.919Z,27.20
2019-04-16T08:30:13.303Z,25.85
2019-04-16T08:32:42.138Z,25.43
2019-04-16T08:35:10.877Z,26.90
2019-04-16T08:37:48.781Z,29.48
2019-04-16T08:40:12.191Z,25.70
2019-04-16T08:42:44.784Z,25.15
2019-04-16T08:45:15.945Z,26.40
2019-04-16T08:47:46.116Z,26.07
2019-04-16T08:50:15.223Z,26.17
2019-04-16T08:52:44.001Z,27.42
2019-04-16T08:55:12.865Z,27.73
2019-04-16T08:57:41.581Z,27.45
2019-04-16T09:00:15.338Z,26.05
2019-04-16T09:02:46.830Z,29.92
2019-04-16T09:05:16.079Z,30.82
2019-04-16T09:07:44.882Z,31.27
2019-04-16T09:10:23.085Z,26.55
2019-04-16T09:13:02.309Z,26.60
2019-04-16T09:15:22.688Z,28.02
2019-04-16T09:17:59.165Z,26.57
2019-04-16T09:20:30.739Z,27.07
2019-04-16T09:22:59.432Z,25.17
2019-04-16T09:25:32.675Z,26.00
2019-04-16T09:28:03.314Z,25.60
2019-04-16T09:30:39.310Z,27.95
2019-04-16T09:33:09.618Z,25.80
2019-04-16T09:35:45.060Z,27.13
2019-04-16T09:38:28.021Z,28.30
2019-04-16T09:41:07.242Z,25.08
2019-04-16T09:43:46.984Z,25.68
2019-04-16T09:46:22.705Z,24.20
2019-04-16T09:48:49.914Z,26.02
2019-04-16T09:51:20.775Z,25.72
2019-04-16T09:53:49.522Z,28.20
2019-04-16T09:56:29.687Z,26.77
2019-04-16T09:59:02.058Z,25.68
2019-04-16T10:01:51.688Z,25.88
2019-04-16T10:04:21.918Z,25.32
2019-04-16T10:06:51.556Z,26.77
2019-04-16T10:09:23.219Z,26.75
2019-04-16T10:11:52.691Z,26.17
2019-04-16T10:14:21.703Z,26.27
2019-04-16T10:16:51.863Z,24.55
2019-04-16T10:19:21.698Z,26.45
2019-04-16T10:21:57.148Z,27.67
2019-04-16T10:24:44.159Z,28.12
2019-04-16T10:27:14.736Z,27.07
2019-04-16T10:29:44.200Z,27.65
2019-04-16T10:32:17.292Z,27.98
2019-04-16T10:34:44.552Z,28.57
2019-04-16T10:37:14.477Z,26.97
2019-04-16T10:39:58.734Z,27.32
2019-04-16T10:42:45.638Z,25.68
2019-04-16T10:45:34.682Z,26.52
2019-04-16T10:48:08.013Z,25.82
2019-04-16T10:50:42.595Z,25.55
2019-04-16T10:53:13.077Z,26.77
2019-04-16T10:56:13.135Z,26.12
2019-04-16T10:58:43.523Z,27.23
2019-04-16T11:01:30.491Z,26.93
2019-04-16T11:04:07.781Z,27.75
2019-04-16T11:06:42.001Z,26.97
2019-04-16T11:09:10.989Z,27.32
2019-04-16T11:11:41.113Z,27.67
2019-04-16T11:14:09.910Z,27.32
2019-04-16T11:16:40.786Z,26.45
2019-04-16T11:19:18.801Z,26.97
2019-04-16T11:21:51.216Z,26.30
2019-04-16T11:24:21.964Z,25.35
2019-04-16T11:26:56.591Z,26.40
2019-04-16T11:29:28.490Z,24.85
2019-04-16T11:32:02.391Z,24.80
2019-04-16T11:34:34.436Z,25.27
2019-04-16T11:37:08.055Z,27.75
2019-04-16T11:39:37.203Z,23.85
2019-04-16T11:42:07.457Z,22.23
2019-04-16T11:44:36.915Z,23.83
2019-04-16T11:47:08.451Z,25.35
2019-04-16T11:49:37.183Z,22.40
2019-04-16T11:52:06.145Z,26.90
2019-04-16T11:54:35.033Z,23.70
2019-04-16T11:57:24.962Z,23.55
2019-04-16T12:00:06.457Z,23.83
2019-04-16T12:02:40.267Z,23.15
2019-04-16T12:05:16.706Z,24.70
2019-04-16T12:07:49.686Z,24.47
2019-04-16T12:10:37.868Z,30.17
2019-04-16T12:15:47.636Z,22.98
2019-04-16T12:18:17.964Z,21.02
2019-04-16T12:21:03.972Z,22.40
2019-04-16T12:23:50.605Z,22.48
2019-04-16T12:26:33.107Z,24.27
2019-04-16T12:29:08.419Z,22.82
2019-04-16T12:31:55.552Z,23.55
2019-04-16T12:34:38.714Z,21.65
2019-04-16T12:37:16.294Z,21.50
2019-04-16T12:39:59.871Z,22.30
2019-04-16T12:42:42.157Z,22.13
2019-04-16T12:45:20.620Z,22.00
2019-04-16T12:47:52.140Z,22.25
2019-04-16T12:50:27.605Z,22.70
2019-04-16T12:53:01.041Z,20.48
2019-04-16T12:55:47.600Z,21.48
2019-04-16T12:58:20.627Z,22.13
2019-04-16T13:01:04.676Z,20.80
2019-04-16T13:03:38.844Z,21.02
2019-04-16T13:06:11.939Z,20.52
2019-04-16T13:08:43.447Z,21.73
2019-04-16T13:11:27.904Z,20.70
2019-04-16T13:14:07.121Z,21.15
2019-04-16T13:16:54.863Z,19.85
2019-04-16T13:19:43.014Z,19.92
2019-04-16T13:24:43.056Z,20.12
2019-04-16T13:27:16.359Z,19.42
2019-04-16T13:29:46.807Z,20.23
2019-04-16T13:32:15.723Z,21.17
2019-04-16T13:34:44.816Z,21.20
2019-04-16T13:37:13.938Z,20.65
2019-04-16T13:39:53.047Z,20.15
2019-04-16T13:42:21.780Z,20.02
2019-04-16T13:44:52.120Z,19.57
2019-04-16T13:47:20.860Z,18.92
2019-04-16T13:50:03.568Z,20.20
2019-04-16T13:52:31.452Z,20.85
2019-04-16T13:55:10.456Z,20.43
2019-04-16T13:57:56.336Z,19.98
2019-04-16T14:00:26.721Z,18.93
2019-04-16T14:02:59.099Z,21.07
2019-04-16T14:05:28.496Z,19.50
2019-04-16T14:07:57.438Z,21.52
2019-04-16T14:10:26.345Z,30.55
2019-04-16T14:13:01.181Z,22.73
2019-04-16T14:15:35.567Z,22.15
2019-04-16T14:18:01.964Z,27.85
2019-04-16T14:20:30.773Z,18.80
2019-04-16T14:23:01.487Z,23.62
2019-04-16T14:25:30.234Z,19.87
2019-04-16T14:28:03.705Z,35.70
2019-04-16T14:30:36.446Z,19.70
2019-04-16T14:33:07.633Z,27.07
2019-04-16T14:38:33.058Z,18.70
2019-04-16T14:41:05.083Z,19.12
2019-04-16T14:43:43.909Z,19.02
2019-04-16T14:46:15.252Z,19.27
2019-04-16T14:48:46.439Z,18.48
2019-04-16T14:51:14.488Z,20.00
2019-04-16T14:53:53.931Z,17.82
2019-04-16T14:56:28.334Z,22.42
2019-04-16T14:59:04.795Z,24.30
2019-04-16T15:01:35.429Z,19.73
2019-04-16T15:04:23.741Z,28.60
2019-04-16T15:06:57.936Z,17.12
2019-04-16T15:09:34.873Z,18.15
2019-04-16T15:12:14.897Z,16.27
2019-04-16T15:14:48.184Z,17.45
2019-04-16T15:17:18.792Z,17.40
2019-04-16T15:19:55.137Z,16.00
2019-04-16T15:22:25.512Z,17.77
2019-04-16T15:25:02.345Z,17.52
2019-04-16T15:27:33.239Z,16.48
2019-04-16T15:30:04.623Z,22.00
2019-04-16T15:32:35.235Z,18.82
2019-04-16T15:35:06.487Z,24.42
2019-04-16T15:37:54.600Z,17.57
2019-04-16T15:40:39.314Z,15.53
2019-04-16T15:43:22.925Z,16.25
2019-04-16T15:46:25.203Z,16.52
2019-04-16T15:48:56.510Z,15.50
2019-04-16T15:51:44.517Z,15.78
2019-04-16T15:54:24.707Z,16.30
2019-04-16T15:57:11.194Z,16.70
2019-04-16T15:59:44.283Z,16.42
2019-04-16T16:02:17.467Z,15.35
2019-04-16T16:04:48.909Z,16.52
2019-04-16T16:07:18.080Z,16.12
2019-04-16T16:09:51.250Z,15.75
2019-04-16T16:12:23.635Z,15.68
2019-04-16T16:14:54.616Z,14.68
2019-04-16T16:17:24.824Z,15.83
2019-04-16T16:19:53.660Z,13.28
2019-04-16T16:22:25.805Z,14.75
2019-04-16T16:24:54.761Z,15.32
2019-04-16T16:27:25.594Z,13.35
2019-04-16T16:29:54.532Z,14.35
2019-04-16T16:32:24.478Z,13.15
2019-04-16T16:34:54.344Z,13.43
2019-04-16T16:37:23.089Z,57.95
2019-04-16T16:39:52.102Z,19.07
2019-04-16T16:42:23.490Z,20.30
2019-04-16T16:44:53.191Z,13.20
2019-04-16T16:47:25.898Z,12.78
2019-04-16T16:49:54.756Z,11.68
2019-04-16T16:52:41.303Z,10.45
2019-04-16T16:55:11.823Z,11.33
2019-04-16T16:57:43.331Z,11.05
2019-04-16T17:00:23.908Z,10.00
2019-04-16T17:02:54.977Z,9.83
2019-04-16T17:05:30.697Z,10.30
2019-04-16T17:07:59.589Z,9.88
2019-04-16T17:10:34.519Z,10.32
2019-04-16T17:13:03.514Z,9.50
2019-04-16T17:15:32.439Z,9.18
2019-04-16T17:18:01.499Z,8.78
2019-04-16T17:20:30.492Z,9.28
2019-04-16T17:23:00.080Z,9.40
2019-04-16T17:25:36.113Z,8.50
2019-04-16T17:28:00.138Z,9.18
2019-04-16T17:30:29.443Z,9.33
2019-04-16T17:32:58.737Z,10.72
2019-04-16T17:35:28.043Z,9.03
2019-04-16T17:38:01.597Z,9.10
2019-04-16T17:40:34.930Z,9.38
2019-04-16T17:43:13.906Z,8.93
2019-04-16T17:45:51.043Z,9.05
2019-04-16T17:51:15.146Z,9.18
2019-04-16T17:56:30.536Z,8.88
2019-04-16T17:59:18.560Z,8.60
2019-04-16T18:01:52.072Z,9.35
2019-04-16T18:04:31.722Z,9.88
2019-04-16T18:07:17.059Z,9.98
2019-04-16T18:10:02.569Z,8.90
2019-04-16T18:12:39.249Z,9.45
2019-04-16T18:15:12.941Z,9.70
2019-04-16T18:18:01.624Z,9.45
2019-04-16T18:20:31.726Z,9.88
2019-04-16T18:23:03.494Z,10.48
2019-04-16T18:25:34.014Z,10.13
2019-04-16T18:28:07.787Z,10.95
2019-04-16T18:30:40.917Z,9.28
2019-04-16T18:33:27.726Z,9.95
2019-04-16T18:36:01.340Z,9.48
2019-04-16T18:38:39.847Z,12.35
2019-04-16T18:41:28.185Z,10.43
2019-04-16T18:43:58.593Z,15.83
2019-04-16T18:46:45.142Z,9.70
2019-04-16T18:49:27.451Z,11.00
2019-04-16T18:51:56.170Z,10.15
2019-04-16T18:54:24.981Z,10.25
2019-04-16T18:56:54.426Z,10.93
2019-04-16T18:59:34.111Z,9.73
2019-04-16T19:02:12.694Z,9.58
2019-04-16T19:04:42.577Z,9.70
2019-04-16T19:07:11.977Z,9.65
2019-04-16T19:09:47.958Z,8.63
2019-04-16T19:12:16.981Z,8.28
2019-04-16T19:14:53.499Z,8.53
2019-04-16T19:17:35.653Z,8.95
2019-04-16T19:20:17.094Z,9.63
2019-04-16T19:22:51.094Z,9.25
2019-04-16T19:25:26.543Z,9.60
2019-04-16T19:28:06.635Z,9.58
2019-04-16T19:30:32.714Z,9.98
2019-04-16T19:33:02.220Z,10.30
2019-04-16T19:35:31.931Z,11.40
2019-04-16T19:38:02.643Z,9.23
2019-04-16T19:40:31.347Z,11.28
2019-04-16T19:43:02.607Z,10.93
2019-04-16T19:45:31.515Z,10.43
2019-04-16T19:48:01.652Z,12.88
2019-04-16T19:50:36.517Z,11.08
2019-04-16T19:53:05.481Z,11.70
2019-04-16T19:55:34.460Z,11.73
2019-04-16T19:58:03.834Z,11.57
2019-04-16T20:00:44.616Z,13.83
2019-04-16T20:03:20.984Z,13.48
2019-04-16T20:08:39.784Z,19.23
2019-04-16T20:11:04.577Z,18.85
2019-04-16T20:13:41.377Z,14.28
2019-04-16T20:16:14.720Z,30.30
2019-04-16T20:18:52.189Z,15.98
2019-04-16T20:21:27.035Z,19.03
2019-04-16T20:24:02.466Z,14.58
2019-04-16T20:26:37.375Z,32.53
2019-04-16T20:29:11.903Z,13.88
2019-04-16T20:31:55.508Z,14.20
2019-04-16T20:34:32.318Z,14.28
2019-04-16T20:37:12.547Z,14.73
2019-04-16T20:39:49.057Z,13.78
2019-04-16T20:42:24.499Z,13.93
2019-04-16T20:44:59.737Z,15.05
2019-04-16T20:47:31.817Z,15.70
2019-04-16T20:50:10.549Z,15.90
2019-04-16T20:52:49.548Z,16.00
2019-04-16T20:55:29.466Z,16.20
2019-04-16T20:58:03.531Z,14.85
2019-04-16T21:00:42.249Z,15.30
2019-04-16T21:03:21.913Z,15.68
2019-04-16T21:05:59.044Z,16.17
2019-04-16T21:08:31.685Z,16.55
2019-04-16T21:11:15.431Z,15.93
2019-04-16T21:13:58.997Z,14.75
2019-04-16T21:16:34.995Z,14.15
2019-04-16T21:19:23.230Z,15.20
2019-04-16T21:22:04.992Z,15.75
2019-04-16T21:24:43.410Z,15.95
2019-04-16T21:27:17.366Z,14.60
2019-04-16T21:29:54.850Z,15.53
2019-04-16T21:32:32.546Z,15.78
2019-04-16T21:35:15.868Z,14.15
2019-04-16T21:40:47.914Z,13.70
2019-04-16T21:43:32.116Z,13.50
2019-04-16T21:46:06.957Z,13.68
2019-04-16T21:48:47.813Z,11.75
2019-04-16T21:51:28.150Z,12.20
2019-04-16T21:54:06.826Z,12.20
2019-04-16T21:56:47.639Z,11.55
2019-04-16T21:59:27.585Z,12.03
2019-04-16T22:02:07.574Z,10.95
2019-04-16T22:04:45.406Z,11.00
2019-04-16T22:07:24.652Z,11.00
2019-04-16T22:10:02.427Z,11.22
2019-04-16T22:12:39.528Z,9.65
2019-04-16T22:15:16.583Z,9.43
2019-04-16T22:17:56.335Z,9.10
2019-04-16T22:20:41.631Z,9.45
2019-04-16T22:23:19.000Z,9.60
2019-04-16T22:25:57.035Z,9.35
2019-04-16T22:28:33.912Z,9.65
2019-04-16T22:31:11.356Z,9.25
2019-04-16T22:33:49.458Z,8.63
2019-04-16T22:36:27.758Z,8.88
2019-04-16T22:39:11.267Z,10.20
2019-04-16T22:41:53.839Z,9.98
2019-04-16T22:44:47.689Z,10.45
2019-04-16T22:47:30.465Z,11.30
2019-04-16T22:50:16.741Z,10.72
2019-04-16T22:52:51.597Z,11.22
2019-04-16T22:55:29.805Z,10.88
2019-04-16T22:58:07.003Z,12.10
2019-04-16T23:00:54.239Z,11.75
2019-04-16T23:03:34.783Z,12.63
2019-04-16T23:06:16.268Z,12.35
2019-04-16T23:08:56.723Z,13.10
2019-04-16T23:11:38.908Z,11.65
2019-04-16T23:14:18.955Z,12.73
2019-04-16T23:16:57.065Z,13.35
2019-04-16T23:19:37.999Z,13.10
2019-04-16T23:22:24.570Z,13.93
2019-04-16T23:25:02.425Z,12.75
2019-04-16T23:27:41.209Z,13.28
2019-04-16T23:30:21.381Z,14.18
2019-04-16T23:33:17.512Z,13.98
2019-04-16T23:35:58.541Z,14.35
2019-04-16T23:38:35.850Z,14.40
2019-04-16T23:41:16.680Z,14.00
2019-04-16T23:43:58.812Z,15.00
2019-04-16T23:46:52.871Z,14.30
2019-04-16T23:49:49.073Z,14.58
2019-04-16T23:52:28.096Z,15.27
2019-04-16T23:55:16.353Z,15.30
2019-04-16T23:57:57.564Z,16.57
